sensor_id;sensor_type;location;lat;lon;timestamp;P1;durP1;ratioP1;P2;durP2;ratioP2
73158;SDS011;61370;48.594;10.202;2022-10-13T00:02:00;110.47;;;21.52;;
73158;SDS011;61370;48.594;10.202;2022-10-13T00:04:27;76.82;;;19.38;;
73158;SDS011;61370;48.594;10.202;2022-10-13T00:06:54;108.97;;;20.08;;
73158;SDS011;61370;48.594;10.202;2022-10-13T00:09:25;90.72;;;20.45;;
73158;SDS011;61370;48.594;10.202;2022-10-13T00:11:57;96.18;;;20.70;;
73158;SDS011;61370;48.594;10.202;2022-10-13T00:14:24;64.53;;;17.63;;
73158;SDS011;61370;48.594;10.202;2022-10-13T00:16:50;80.90;;;19.45;;
73158;SDS011;61370;48.594;10.202;2022-10-13T00:19:17;80.95;;;18.70;;
73158;SDS011;61370;48.594;10.202;2022-10-13T00:21:43;104.50;;;21.25;;
73158;SDS011;61370;48.594;10.202;2022-10-13T00:24:09;77.30;;;17.83;;
73158;SDS011;61370;48.594;10.202;2022-10-13T00:26:37;80.97;;;18.73;;
73158;SDS011;61370;48.594;10.202;2022-10-13T00:29:06;89.97;;;18.25;;
73158;SDS011;61370;48.594;10.202;2022-10-13T00:31:32;92.90;;;19.48;;
73158;SDS011;61370;48.594;10.202;2022-10-13T00:33:59;121.43;;;22.00;;
73158;SDS011;61370;48.594;10.202;2022-10-13T00:36:27;111.28;;;21.40;;
73158;SDS011;61370;48.594;10.202;2022-10-13T00:38:55;81.75;;;19.63;;
73158;SDS011;61370;48.594;10.202;2022-10-13T00:41:22;89.50;;;20.33;;
73158;SDS011;61370;48.594;10.202;2022-10-13T00:46:35;78.13;;;21.48;;
73158;SDS011;61370;48.594;10.202;2022-10-13T00:49:06;81.55;;;22.02;;
73158;SDS011;61370;48.594;10.202;2022-10-13T00:51:36;95.50;;;22.35;;
73158;SDS011;61370;48.594;10.202;2022-10-13T00:54:06;216.40;;;25.70;;
73158;SDS011;61370;48.594;10.202;2022-10-13T00:56:34;221.60;;;28.38;;
73158;SDS011;61370;48.594;10.202;2022-10-13T00:59:02;95.93;;;23.10;;
73158;SDS011;61370;48.594;10.202;2022-10-13T01:01:29;105.22;;;22.75;;
73158;SDS011;61370;48.594;10.202;2022-10-13T01:03:56;93.40;;;23.45;;
73158;SDS011;61370;48.594;10.202;2022-10-13T01:06:23;105.57;;;23.55;;
73158;SDS011;61370;48.594;10.202;2022-10-13T01:08:50;101.50;;;22.77;;
73158;SDS011;61370;48.594;10.202;2022-10-13T01:13:48;115.00;;;24.75;;
73158;SDS011;61370;48.594;10.202;2022-10-13T01:21:32;102.95;;;26.17;;
73158;SDS011;61370;48.594;10.202;2022-10-13T01:35:04;81.20;;;23.30;;
73158;SDS011;61370;48.594;10.202;2022-10-13T01:41:07;90.20;;;22.42;;
73158;SDS011;61370;48.594;10.202;2022-10-13T01:43:10;116.80;;;25.17;;
73158;SDS011;61370;48.594;10.202;2022-10-13T01:46:00;91.30;;;20.88;;
73158;SDS011;61370;48.594;10.202;2022-10-13T01:48:35;76.53;;;19.80;;
73158;SDS011;61370;48.594;10.202;2022-10-13T01:51:04;90.35;;;22.42;;
73158;SDS011;61370;48.594;10.202;2022-10-13T01:53:32;68.57;;;20.25;;
73158;SDS011;61370;48.594;10.202;2022-10-13T01:55:59;51.00;;;18.30;;
73158;SDS011;61370;48.594;10.202;2022-10-13T01:58:27;47.95;;;18.50;;
73158;SDS011;61370;48.594;10.202;2022-10-13T02:01:00;61.63;;;18.83;;
73158;SDS011;61370;48.594;10.202;2022-10-13T02:12:02;37.22;;;15.13;;
73158;SDS011;61370;48.594;10.202;2022-10-13T02:14:33;58.17;;;16.83;;
73158;SDS011;61370;48.594;10.202;2022-10-13T02:17:02;47.22;;;18.33;;
73158;SDS011;61370;48.594;10.202;2022-10-13T02:19:31;43.53;;;16.33;;
73158;SDS011;61370;48.594;10.202;2022-10-13T02:21:59;35.05;;;15.93;;
73158;SDS011;61370;48.594;10.202;2022-10-13T02:24:25;32.47;;;14.95;;
73158;SDS011;61370;48.594;10.202;2022-10-13T02:26:52;36.38;;;15.32;;
73158;SDS011;61370;48.594;10.202;2022-10-13T02:29:19;38.53;;;15.43;;
73158;SDS011;61370;48.594;10.202;2022-10-13T02:31:46;32.78;;;14.77;;
73158;SDS011;61370;48.594;10.202;2022-10-13T02:34:13;31.20;;;15.25;;
73158;SDS011;61370;48.594;10.202;2022-10-13T02:36:40;51.72;;;16.58;;
73158;SDS011;61370;48.594;10.202;2022-10-13T02:39:07;45.03;;;16.10;;
73158;SDS011;61370;48.594;10.202;2022-10-13T02:41:34;42.17;;;14.30;;
73158;SDS011;61370;48.594;10.202;2022-10-13T02:44:00;33.22;;;14.30;;
73158;SDS011;61370;48.594;10.202;2022-10-13T02:46:34;31.90;;;14.50;;
73158;SDS011;61370;48.594;10.202;2022-10-13T02:49:00;33.90;;;14.90;;
73158;SDS011;61370;48.594;10.202;2022-10-13T02:51:28;31.88;;;14.68;;
73158;SDS011;61370;48.594;10.202;2022-10-13T02:53:54;29.80;;;14.50;;
73158;SDS011;61370;48.594;10.202;2022-10-13T02:56:21;29.15;;;13.93;;
73158;SDS011;61370;48.594;10.202;2022-10-13T02:58:48;33.70;;;13.55;;
73158;SDS011;61370;48.594;10.202;2022-10-13T03:01:14;25.95;;;12.77;;
73158;SDS011;61370;48.594;10.202;2022-10-13T03:03:41;28.50;;;14.13;;
73158;SDS011;61370;48.594;10.202;2022-10-13T03:06:08;40.53;;;12.73;;
73158;SDS011;61370;48.594;10.202;2022-10-13T03:08:35;31.30;;;13.48;;
73158;SDS011;61370;48.594;10.202;2022-10-13T03:11:01;34.83;;;13.10;;
73158;SDS011;61370;48.594;10.202;2022-10-13T03:13:28;41.03;;;14.30;;
73158;SDS011;61370;48.594;10.202;2022-10-13T03:16:02;36.10;;;14.07;;
73158;SDS011;61370;48.594;10.202;2022-10-13T03:18:29;30.08;;;14.65;;
73158;SDS011;61370;48.594;10.202;2022-10-13T03:20:56;27.25;;;13.43;;
73158;SDS011;61370;48.594;10.202;2022-10-13T03:23:24;39.88;;;14.57;;
73158;SDS011;61370;48.594;10.202;2022-10-13T03:25:51;27.65;;;12.77;;
73158;SDS011;61370;48.594;10.202;2022-10-13T03:28:17;33.65;;;13.68;;
73158;SDS011;61370;48.594;10.202;2022-10-13T03:30:45;31.42;;;15.07;;
73158;SDS011;61370;48.594;10.202;2022-10-13T03:33:11;27.48;;;13.15;;
73158;SDS011;61370;48.594;10.202;2022-10-13T03:35:38;30.98;;;14.50;;
73158;SDS011;61370;48.594;10.202;2022-10-13T03:38:04;32.83;;;14.10;;
73158;SDS011;61370;48.594;10.202;2022-10-13T03:40:34;29.73;;;14.00;;
73158;SDS011;61370;48.594;10.202;2022-10-13T03:43:01;26.42;;;13.88;;
73158;SDS011;61370;48.594;10.202;2022-10-13T03:45:27;47.55;;;14.38;;
73158;SDS011;61370;48.594;10.202;2022-10-13T03:47:56;24.73;;;13.20;;
73158;SDS011;61370;48.594;10.202;2022-10-13T03:50:23;28.08;;;13.57;;
73158;SDS011;61370;48.594;10.202;2022-10-13T03:52:50;28.15;;;13.38;;
73158;SDS011;61370;48.594;10.202;2022-10-13T03:55:17;25.77;;;13.60;;
73158;SDS011;61370;48.594;10.202;2022-10-13T03:57:43;27.00;;;12.93;;
73158;SDS011;61370;48.594;10.202;2022-10-13T04:00:10;27.10;;;13.27;;
73158;SDS011;61370;48.594;10.202;2022-10-13T04:02:39;26.10;;;12.88;;
73158;SDS011;61370;48.594;10.202;2022-10-13T04:05:05;22.92;;;12.18;;
73158;SDS011;61370;48.594;10.202;2022-10-13T04:07:32;26.60;;;13.20;;
73158;SDS011;61370;48.594;10.202;2022-10-13T04:10:04;27.15;;;12.98;;
73158;SDS011;61370;48.594;10.202;2022-10-13T04:12:30;30.33;;;15.20;;
73158;SDS011;61370;48.594;10.202;2022-10-13T04:14:57;36.92;;;16.48;;
73158;SDS011;61370;48.594;10.202;2022-10-13T04:17:23;30.83;;;16.85;;
73158;SDS011;61370;48.594;10.202;2022-10-13T04:19:50;41.08;;;16.90;;
73158;SDS011;61370;48.594;10.202;2022-10-13T04:22:16;35.53;;;16.48;;
73158;SDS011;61370;48.594;10.202;2022-10-13T04:24:47;28.10;;;14.52;;
73158;SDS011;61370;48.594;10.202;2022-10-13T04:27:13;31.50;;;14.85;;
73158;SDS011;61370;48.594;10.202;2022-10-13T04:29:41;27.33;;;14.40;;
73158;SDS011;61370;48.594;10.202;2022-10-13T04:32:08;26.83;;;13.63;;
73158;SDS011;61370;48.594;10.202;2022-10-13T04:34:35;26.75;;;13.50;;
73158;SDS011;61370;48.594;10.202;2022-10-13T04:37:01;27.95;;;13.80;;
73158;SDS011;61370;48.594;10.202;2022-10-13T04:39:28;27.85;;;13.70;;
73158;SDS011;61370;48.594;10.202;2022-10-13T04:41:55;29.15;;;14.43;;
73158;SDS011;61370;48.594;10.202;2022-10-13T04:44:21;28.58;;;13.68;;
73158;SDS011;61370;48.594;10.202;2022-10-13T04:46:47;24.98;;;13.50;;
73158;SDS011;61370;48.594;10.202;2022-10-13T04:49:14;23.25;;;12.15;;
73158;SDS011;61370;48.594;10.202;2022-10-13T04:51:42;23.63;;;12.13;;
73158;SDS011;61370;48.594;10.202;2022-10-13T04:54:08;22.83;;;12.05;;
73158;SDS011;61370;48.594;10.202;2022-10-13T04:56:35;25.38;;;12.70;;
73158;SDS011;61370;48.594;10.202;2022-10-13T04:59:02;25.55;;;13.15;;
73158;SDS011;61370;48.594;10.202;2022-10-13T05:01:30;26.73;;;13.40;;
73158;SDS011;61370;48.594;10.202;2022-10-13T05:03:59;24.92;;;13.18;;
73158;SDS011;61370;48.594;10.202;2022-10-13T05:06:30;25.65;;;13.75;;
73158;SDS011;61370;48.594;10.202;2022-10-13T05:08:59;25.40;;;12.40;;
73158;SDS011;61370;48.594;10.202;2022-10-13T05:11:26;24.60;;;13.90;;
73158;SDS011;61370;48.594;10.202;2022-10-13T05:13:54;26.13;;;12.95;;
73158;SDS011;61370;48.594;10.202;2022-10-13T05:16:21;26.35;;;13.48;;
73158;SDS011;61370;48.594;10.202;2022-10-13T05:18:49;24.00;;;12.65;;
73158;SDS011;61370;48.594;10.202;2022-10-13T05:21:17;25.23;;;12.90;;
73158;SDS011;61370;48.594;10.202;2022-10-13T05:23:52;26.90;;;14.15;;
73158;SDS011;61370;48.594;10.202;2022-10-13T05:26:24;26.33;;;13.73;;
73158;SDS011;61370;48.594;10.202;2022-10-13T05:28:57;26.15;;;12.98;;
73158;SDS011;61370;48.594;10.202;2022-10-13T05:31:26;24.45;;;12.95;;
73158;SDS011;61370;48.594;10.202;2022-10-13T05:34:02;26.60;;;13.13;;
73158;SDS011;61370;48.594;10.202;2022-10-13T05:36:30;26.35;;;13.45;;
73158;SDS011;61370;48.594;10.202;2022-10-13T05:39:00;25.80;;;13.45;;
73158;SDS011;61370;48.594;10.202;2022-10-13T05:41:30;25.35;;;12.30;;
73158;SDS011;61370;48.594;10.202;2022-10-13T05:43:59;22.92;;;12.57;;
73158;SDS011;61370;48.594;10.202;2022-10-13T05:46:29;21.92;;;12.23;;
73158;SDS011;61370;48.594;10.202;2022-10-13T05:48:57;24.25;;;12.25;;
73158;SDS011;61370;48.594;10.202;2022-10-13T05:51:27;23.75;;;12.40;;
73158;SDS011;61370;48.594;10.202;2022-10-13T05:54:09;24.08;;;12.95;;
73158;SDS011;61370;48.594;10.202;2022-10-13T05:57:02;23.10;;;12.57;;
73158;SDS011;61370;48.594;10.202;2022-10-13T05:59:34;22.58;;;11.65;;
73158;SDS011;61370;48.594;10.202;2022-10-13T06:02:06;23.38;;;11.52;;
73158;SDS011;61370;48.594;10.202;2022-10-13T06:04:35;26.63;;;12.88;;
73158;SDS011;61370;48.594;10.202;2022-10-13T06:07:07;23.13;;;12.55;;
73158;SDS011;61370;48.594;10.202;2022-10-13T06:09:35;23.08;;;12.55;;
73158;SDS011;61370;48.594;10.202;2022-10-13T06:12:04;22.88;;;12.35;;
73158;SDS011;61370;48.594;10.202;2022-10-13T06:14:31;22.08;;;11.98;;
73158;SDS011;61370;48.594;10.202;2022-10-13T06:17:00;20.83;;;11.50;;
73158;SDS011;61370;48.594;10.202;2022-10-13T06:19:27;21.88;;;11.90;;
73158;SDS011;61370;48.594;10.202;2022-10-13T06:21:53;23.30;;;12.68;;
73158;SDS011;61370;48.594;10.202;2022-10-13T06:24:20;20.88;;;11.30;;
73158;SDS011;61370;48.594;10.202;2022-10-13T06:26:47;21.38;;;11.82;;
73158;SDS011;61370;48.594;10.202;2022-10-13T06:29:14;21.42;;;11.85;;
73158;SDS011;61370;48.594;10.202;2022-10-13T06:31:40;24.52;;;12.68;;
73158;SDS011;61370;48.594;10.202;2022-10-13T06:34:07;22.10;;;11.80;;
73158;SDS011;61370;48.594;10.202;2022-10-13T06:36:34;22.67;;;11.93;;
73158;SDS011;61370;48.594;10.202;2022-10-13T06:39:01;23.75;;;12.30;;
73158;SDS011;61370;48.594;10.202;2022-10-13T06:41:28;23.48;;;12.23;;
73158;SDS011;61370;48.594;10.202;2022-10-13T06:43:55;22.60;;;12.65;;
73158;SDS011;61370;48.594;10.202;2022-10-13T06:46:22;25.25;;;12.77;;
73158;SDS011;61370;48.594;10.202;2022-10-13T06:48:49;22.08;;;12.13;;
73158;SDS011;61370;48.594;10.202;2022-10-13T06:51:16;26.30;;;12.90;;
73158;SDS011;61370;48.594;10.202;2022-10-13T06:53:43;21.65;;;11.93;;
73158;SDS011;61370;48.594;10.202;2022-10-13T06:56:10;27.40;;;13.25;;
73158;SDS011;61370;48.594;10.202;2022-10-13T06:58:37;25.27;;;12.55;;
73158;SDS011;61370;48.594;10.202;2022-10-13T07:01:04;23.95;;;11.75;;
73158;SDS011;61370;48.594;10.202;2022-10-13T07:03:31;23.60;;;12.55;;
73158;SDS011;61370;48.594;10.202;2022-10-13T07:06:03;23.08;;;11.50;;
73158;SDS011;61370;48.594;10.202;2022-10-13T07:08:31;22.48;;;12.05;;
73158;SDS011;61370;48.594;10.202;2022-10-13T07:10:58;23.70;;;11.57;;
73158;SDS011;61370;48.594;10.202;2022-10-13T07:13:25;25.05;;;11.23;;
73158;SDS011;61370;48.594;10.202;2022-10-13T07:15:51;20.77;;;11.20;;
73158;SDS011;61370;48.594;10.202;2022-10-13T07:18:18;24.30;;;11.13;;
73158;SDS011;61370;48.594;10.202;2022-10-13T07:20:44;23.27;;;12.50;;
73158;SDS011;61370;48.594;10.202;2022-10-13T07:23:10;22.20;;;11.75;;
73158;SDS011;61370;48.594;10.202;2022-10-13T07:25:37;32.95;;;17.42;;
73158;SDS011;61370;48.594;10.202;2022-10-13T07:28:03;25.65;;;14.02;;
73158;SDS011;61370;48.594;10.202;2022-10-13T07:30:30;23.83;;;12.25;;
73158;SDS011;61370;48.594;10.202;2022-10-13T07:32:56;20.17;;;10.98;;
73158;SDS011;61370;48.594;10.202;2022-10-13T07:35:23;25.38;;;11.60;;
73158;SDS011;61370;48.594;10.202;2022-10-13T07:37:51;25.70;;;11.80;;
73158;SDS011;61370;48.594;10.202;2022-10-13T07:40:18;23.92;;;11.63;;
73158;SDS011;61370;48.594;10.202;2022-10-13T07:42:45;22.42;;;11.25;;
73158;SDS011;61370;48.594;10.202;2022-10-13T07:45:13;23.48;;;12.40;;
73158;SDS011;61370;48.594;10.202;2022-10-13T07:47:39;26.60;;;11.98;;
73158;SDS011;61370;48.594;10.202;2022-10-13T07:50:10;26.55;;;11.48;;
73158;SDS011;61370;48.594;10.202;2022-10-13T07:52:37;24.10;;;11.98;;
73158;SDS011;61370;48.594;10.202;2022-10-13T07:55:03;27.13;;;12.68;;
73158;SDS011;61370;48.594;10.202;2022-10-13T07:57:31;26.05;;;12.82;;
73158;SDS011;61370;48.594;10.202;2022-10-13T07:59:57;28.17;;;14.40;;
73158;SDS011;61370;48.594;10.202;2022-10-13T08:02:24;30.00;;;13.90;;
73158;SDS011;61370;48.594;10.202;2022-10-13T08:04:52;27.55;;;14.35;;
73158;SDS011;61370;48.594;10.202;2022-10-13T08:07:19;27.17;;;13.55;;
73158;SDS011;61370;48.594;10.202;2022-10-13T08:09:47;26.92;;;13.45;;
73158;SDS011;61370;48.594;10.202;2022-10-13T08:12:14;27.98;;;14.32;;
73158;SDS011;61370;48.594;10.202;2022-10-13T08:17:33;27.95;;;13.70;;
73158;SDS011;61370;48.594;10.202;2022-10-13T08:20:05;29.88;;;14.50;;
73158;SDS011;61370;48.594;10.202;2022-10-13T08:22:33;24.83;;;13.15;;
73158;SDS011;61370;48.594;10.202;2022-10-13T08:25:00;27.67;;;12.73;;
73158;SDS011;61370;48.594;10.202;2022-10-13T08:27:27;26.73;;;14.38;;
73158;SDS011;61370;48.594;10.202;2022-10-13T08:29:54;27.92;;;14.00;;
73158;SDS011;61370;48.594;10.202;2022-10-13T08:32:21;24.27;;;12.70;;
73158;SDS011;61370;48.594;10.202;2022-10-13T08:34:48;27.13;;;13.98;;
73158;SDS011;61370;48.594;10.202;2022-10-13T08:37:15;24.77;;;12.50;;
73158;SDS011;61370;48.594;10.202;2022-10-13T08:39:46;27.00;;;12.27;;
73158;SDS011;61370;48.594;10.202;2022-10-13T08:42:19;22.23;;;10.77;;
73158;SDS011;61370;48.594;10.202;2022-10-13T08:44:52;21.75;;;10.10;;
73158;SDS011;61370;48.594;10.202;2022-10-13T08:47:23;22.25;;;9.48;;
73158;SDS011;61370;48.594;10.202;2022-10-13T08:50:01;20.80;;;9.30;;
73158;SDS011;61370;48.594;10.202;2022-10-13T08:52:44;18.83;;;9.90;;
73158;SDS011;61370;48.594;10.202;2022-10-13T08:55:20;17.10;;;8.65;;
73158;SDS011;61370;48.594;10.202;2022-10-13T08:57:50;15.32;;;7.93;;
73158;SDS011;61370;48.594;10.202;2022-10-13T09:00:17;15.85;;;7.80;;
73158;SDS011;61370;48.594;10.202;2022-10-13T09:02:48;15.73;;;9.00;;
73158;SDS011;61370;48.594;10.202;2022-10-13T09:05:26;15.15;;;7.43;;
73158;SDS011;61370;48.594;10.202;2022-10-13T09:08:04;13.57;;;6.78;;
73158;SDS011;61370;48.594;10.202;2022-10-13T09:10:49;13.38;;;7.07;;
73158;SDS011;61370;48.594;10.202;2022-10-13T09:13:23;16.80;;;7.50;;
73158;SDS011;61370;48.594;10.202;2022-10-13T09:15:51;12.27;;;6.85;;
73158;SDS011;61370;48.594;10.202;2022-10-13T09:18:18;14.65;;;6.97;;
73158;SDS011;61370;48.594;10.202;2022-10-13T09:20:44;13.50;;;6.75;;
73158;SDS011;61370;48.594;10.202;2022-10-13T09:23:18;14.45;;;6.95;;
73158;SDS011;61370;48.594;10.202;2022-10-13T09:25:50;13.80;;;6.93;;
73158;SDS011;61370;48.594;10.202;2022-10-13T09:28:19;15.90;;;6.68;;
73158;SDS011;61370;48.594;10.202;2022-10-13T09:30:49;12.13;;;6.95;;
73158;SDS011;61370;48.594;10.202;2022-10-13T09:33:33;14.55;;;6.90;;
73158;SDS011;61370;48.594;10.202;2022-10-13T09:38:31;11.85;;;6.68;;
73158;SDS011;61370;48.594;10.202;2022-10-13T09:43:37;13.02;;;6.50;;
73158;SDS011;61370;48.594;10.202;2022-10-13T09:48:57;14.30;;;6.38;;
73158;SDS011;61370;48.594;10.202;2022-10-13T09:51:28;14.45;;;6.57;;
73158;SDS011;61370;48.594;10.202;2022-10-13T09:54:35;11.82;;;6.53;;
73158;SDS011;61370;48.594;10.202;2022-10-13T09:59:49;12.38;;;6.13;;
73158;SDS011;61370;48.594;10.202;2022-10-13T10:02:30;15.02;;;6.45;;
73158;SDS011;61370;48.594;10.202;2022-10-13T10:07:47;12.07;;;6.03;;
73158;SDS011;61370;48.594;10.202;2022-10-13T10:10:22;13.00;;;6.70;;
73158;SDS011;61370;48.594;10.202;2022-10-13T10:12:53;12.32;;;6.00;;
73158;SDS011;61370;48.594;10.202;2022-10-13T10:15:21;11.52;;;6.03;;
73158;SDS011;61370;48.594;10.202;2022-10-13T10:18:12;14.05;;;5.75;;
73158;SDS011;61370;48.594;10.202;2022-10-13T10:20:50;12.98;;;6.05;;
73158;SDS011;61370;48.594;10.202;2022-10-13T10:23:45;12.45;;;6.22;;
73158;SDS011;61370;48.594;10.202;2022-10-13T10:26:19;12.43;;;6.20;;
73158;SDS011;61370;48.594;10.202;2022-10-13T10:28:57;14.50;;;7.22;;
73158;SDS011;61370;48.594;10.202;2022-10-13T10:37:16;15.75;;;6.20;;
73158;SDS011;61370;48.594;10.202;2022-10-13T10:39:46;12.23;;;6.35;;
73158;SDS011;61370;48.594;10.202;2022-10-13T10:42:20;12.88;;;6.88;;
73158;SDS011;61370;48.594;10.202;2022-10-13T10:44:59;18.75;;;7.28;;
73158;SDS011;61370;48.594;10.202;2022-10-13T10:47:38;13.80;;;7.35;;
73158;SDS011;61370;48.594;10.202;2022-10-13T10:50:12;14.23;;;6.50;;
73158;SDS011;61370;48.594;10.202;2022-10-13T11:01:05;13.48;;;7.00;;
73158;SDS011;61370;48.594;10.202;2022-10-13T11:03:56;10.63;;;6.43;;
73158;SDS011;61370;48.594;10.202;2022-10-13T11:06:34;12.80;;;6.72;;
73158;SDS011;61370;48.594;10.202;2022-10-13T11:09:04;14.63;;;6.78;;
73158;SDS011;61370;48.594;10.202;2022-10-13T11:11:41;14.48;;;7.10;;
73158;SDS011;61370;48.594;10.202;2022-10-13T11:14:19;16.42;;;6.60;;
73158;SDS011;61370;48.594;10.202;2022-10-13T11:19:39;14.77;;;7.10;;
73158;SDS011;61370;48.594;10.202;2022-10-13T11:22:10;12.55;;;6.47;;
73158;SDS011;61370;48.594;10.202;2022-10-13T11:24:58;12.00;;;7.15;;
73158;SDS011;61370;48.594;10.202;2022-10-13T11:30:02;15.40;;;6.88;;
73158;SDS011;61370;48.594;10.202;2022-10-13T11:51:08;13.85;;;6.60;;
73158;SDS011;61370;48.594;10.202;2022-10-13T11:56:21;14.52;;;7.07;;
73158;SDS011;61370;48.594;10.202;2022-10-13T11:58:59;14.93;;;7.00;;
73158;SDS011;61370;48.594;10.202;2022-10-13T12:01:26;18.20;;;7.90;;
73158;SDS011;61370;48.594;10.202;2022-10-13T12:03:52;13.40;;;6.45;;
73158;SDS011;61370;48.594;10.202;2022-10-13T12:06:24;12.13;;;6.65;;
73158;SDS011;61370;48.594;10.202;2022-10-13T12:09:00;11.82;;;6.45;;
73158;SDS011;61370;48.594;10.202;2022-10-13T12:11:34;13.73;;;6.53;;
73158;SDS011;61370;48.594;10.202;2022-10-13T12:14:06;12.40;;;6.50;;
73158;SDS011;61370;48.594;10.202;2022-10-13T12:16:56;15.90;;;6.53;;
73158;SDS011;61370;48.594;10.202;2022-10-13T12:19:25;10.52;;;6.20;;
73158;SDS011;61370;48.594;10.202;2022-10-13T12:21:54;12.68;;;7.40;;
73158;SDS011;61370;48.594;10.202;2022-10-13T12:24:22;11.80;;;6.78;;
73158;SDS011;61370;48.594;10.202;2022-10-13T12:26:50;12.45;;;6.53;;
73158;SDS011;61370;48.594;10.202;2022-10-13T12:29:18;13.10;;;7.03;;
73158;SDS011;61370;48.594;10.202;2022-10-13T12:34:26;14.63;;;7.22;;
73158;SDS011;61370;48.594;10.202;2022-10-13T12:39:27;12.55;;;6.60;;
73158;SDS011;61370;48.594;10.202;2022-10-13T12:41:54;11.20;;;6.53;;
73158;SDS011;61370;48.594;10.202;2022-10-13T12:44:26;13.27;;;6.63;;
73158;SDS011;61370;48.594;10.202;2022-10-13T12:46:57;13.90;;;6.65;;
73158;SDS011;61370;48.594;10.202;2022-10-13T12:49:29;12.05;;;6.85;;
73158;SDS011;61370;48.594;10.202;2022-10-13T12:52:14;14.88;;;6.80;;
73158;SDS011;61370;48.594;10.202;2022-10-13T12:57:16;14.85;;;6.72;;
73158;SDS011;61370;48.594;10.202;2022-10-13T12:59:49;11.65;;;5.78;;
73158;SDS011;61370;48.594;10.202;2022-10-13T13:02:28;13.68;;;6.47;;
73158;SDS011;61370;48.594;10.202;2022-10-13T13:04:57;12.25;;;6.55;;
73158;SDS011;61370;48.594;10.202;2022-10-13T13:07:34;16.45;;;7.40;;
73158;SDS011;61370;48.594;10.202;2022-10-13T13:10:12;12.15;;;6.10;;
73158;SDS011;61370;48.594;10.202;2022-10-13T13:12:41;13.50;;;6.35;;
73158;SDS011;61370;48.594;10.202;2022-10-13T13:21:04;13.88;;;7.15;;
73158;SDS011;61370;48.594;10.202;2022-10-13T13:23:33;13.20;;;7.10;;
73158;SDS011;61370;48.594;10.202;2022-10-13T13:28:50;13.02;;;7.70;;
73158;SDS011;61370;48.594;10.202;2022-10-13T13:31:18;14.48;;;7.28;;
73158;SDS011;61370;48.594;10.202;2022-10-13T13:33:47;12.80;;;6.95;;
73158;SDS011;61370;48.594;10.202;2022-10-13T13:36:18;11.63;;;7.22;;
73158;SDS011;61370;48.594;10.202;2022-10-13T13:38:46;12.23;;;7.25;;
73158;SDS011;61370;48.594;10.202;2022-10-13T13:41:14;16.02;;;7.05;;
73158;SDS011;61370;48.594;10.202;2022-10-13T13:43:41;13.10;;;7.40;;
73158;SDS011;61370;48.594;10.202;2022-10-13T13:46:21;18.83;;;7.78;;
73158;SDS011;61370;48.594;10.202;2022-10-13T13:48:49;13.07;;;7.10;;
73158;SDS011;61370;48.594;10.202;2022-10-13T13:51:16;12.15;;;7.10;;
73158;SDS011;61370;48.594;10.202;2022-10-13T13:53:44;13.75;;;7.13;;
73158;SDS011;61370;48.594;10.202;2022-10-13T13:56:12;12.20;;;6.93;;
73158;SDS011;61370;48.594;10.202;2022-10-13T13:58:39;13.50;;;7.22;;
73158;SDS011;61370;48.594;10.202;2022-10-13T14:01:06;14.10;;;7.18;;
73158;SDS011;61370;48.594;10.202;2022-10-13T14:03:33;18.98;;;7.43;;
73158;SDS011;61370;48.594;10.202;2022-10-13T14:05:59;15.95;;;7.57;;
73158;SDS011;61370;48.594;10.202;2022-10-13T14:08:31;16.02;;;7.75;;
73158;SDS011;61370;48.594;10.202;2022-10-13T14:10:59;14.25;;;7.65;;
73158;SDS011;61370;48.594;10.202;2022-10-13T14:13:26;15.43;;;7.63;;
73158;SDS011;61370;48.594;10.202;2022-10-13T14:15:56;15.23;;;8.20;;
73158;SDS011;61370;48.594;10.202;2022-10-13T14:18:23;14.13;;;7.85;;
73158;SDS011;61370;48.594;10.202;2022-10-13T14:20:49;15.15;;;7.85;;
73158;SDS011;61370;48.594;10.202;2022-10-13T14:23:16;14.55;;;8.07;;
73158;SDS011;61370;48.594;10.202;2022-10-13T14:25:43;15.30;;;7.28;;
73158;SDS011;61370;48.594;10.202;2022-10-13T14:28:09;14.75;;;8.10;;
73158;SDS011;61370;48.594;10.202;2022-10-13T14:30:39;16.38;;;8.27;;
73158;SDS011;61370;48.594;10.202;2022-10-13T14:35:32;15.15;;;7.20;;
73158;SDS011;61370;48.594;10.202;2022-10-13T14:37:59;16.08;;;7.68;;
73158;SDS011;61370;48.594;10.202;2022-10-13T14:40:25;15.68;;;7.72;;
73158;SDS011;61370;48.594;10.202;2022-10-13T14:42:52;17.40;;;8.40;;
73158;SDS011;61370;48.594;10.202;2022-10-13T14:45:18;16.60;;;8.02;;
73158;SDS011;61370;48.594;10.202;2022-10-13T14:47:45;14.52;;;7.93;;
73158;SDS011;61370;48.594;10.202;2022-10-13T14:50:12;15.98;;;7.00;;
73158;SDS011;61370;48.594;10.202;2022-10-13T14:52:39;16.02;;;7.63;;
73158;SDS011;61370;48.594;10.202;2022-10-13T14:55:05;16.45;;;7.90;;
73158;SDS011;61370;48.594;10.202;2022-10-13T14:57:32;21.00;;;7.80;;
73158;SDS011;61370;48.594;10.202;2022-10-13T14:59:59;16.83;;;8.38;;
73158;SDS011;61370;48.594;10.202;2022-10-13T15:02:25;12.77;;;7.68;;
73158;SDS011;61370;48.594;10.202;2022-10-13T15:04:52;17.30;;;8.20;;
73158;SDS011;61370;48.594;10.202;2022-10-13T15:07:19;21.27;;;8.88;;
73158;SDS011;61370;48.594;10.202;2022-10-13T15:09:45;13.13;;;7.63;;
73158;SDS011;61370;48.594;10.202;2022-10-13T15:12:12;26.30;;;8.73;;
73158;SDS011;61370;48.594;10.202;2022-10-13T15:14:39;15.20;;;8.02;;
73158;SDS011;61370;48.594;10.202;2022-10-13T15:17:06;16.52;;;7.60;;
73158;SDS011;61370;48.594;10.202;2022-10-13T15:19:32;12.32;;;7.05;;
73158;SDS011;61370;48.594;10.202;2022-10-13T15:21:59;12.98;;;7.63;;
73158;SDS011;61370;48.594;10.202;2022-10-13T15:24:25;16.13;;;8.13;;
73158;SDS011;61370;48.594;10.202;2022-10-13T15:29:26;14.43;;;7.30;;
73158;SDS011;61370;48.594;10.202;2022-10-13T15:31:54;14.75;;;6.70;;
73158;SDS011;61370;48.594;10.202;2022-10-13T15:34:33;10.23;;;6.53;;
73158;SDS011;61370;48.594;10.202;2022-10-13T15:37:00;13.25;;;6.68;;
73158;SDS011;61370;48.594;10.202;2022-10-13T15:39:26;13.93;;;7.05;;
73158;SDS011;61370;48.594;10.202;2022-10-13T15:41:52;13.32;;;7.18;;
73158;SDS011;61370;48.594;10.202;2022-10-13T15:44:19;16.63;;;6.70;;
73158;SDS011;61370;48.594;10.202;2022-10-13T15:46:46;14.02;;;6.75;;
73158;SDS011;61370;48.594;10.202;2022-10-13T15:49:12;12.02;;;6.22;;
73158;SDS011;61370;48.594;10.202;2022-10-13T15:51:39;12.43;;;6.10;;
73158;SDS011;61370;48.594;10.202;2022-10-13T15:54:05;14.35;;;6.32;;
73158;SDS011;61370;48.594;10.202;2022-10-13T15:56:32;14.45;;;7.20;;
73158;SDS011;61370;48.594;10.202;2022-10-13T15:58:58;17.13;;;7.60;;
73158;SDS011;61370;48.594;10.202;2022-10-13T16:01:24;21.60;;;10.95;;
73158;SDS011;61370;48.594;10.202;2022-10-13T16:03:54;19.85;;;9.30;;
73158;SDS011;61370;48.594;10.202;2022-10-13T16:06:21;20.63;;;9.45;;
73158;SDS011;61370;48.594;10.202;2022-10-13T16:08:47;24.98;;;11.43;;
73158;SDS011;61370;48.594;10.202;2022-10-13T16:11:14;31.77;;;13.38;;
73158;SDS011;61370;48.594;10.202;2022-10-13T16:13:48;23.15;;;10.85;;
73158;SDS011;61370;48.594;10.202;2022-10-13T16:16:18;17.02;;;8.43;;
73158;SDS011;61370;48.594;10.202;2022-10-13T16:18:45;17.88;;;7.28;;